Time;durP1;ratioP1;P1;durP2;ratioP2;P2;SDS_P1;SDS_P2;PMS_P1;PMS_P2;Temp;Humidity;BMP_temperature;BMP_pressure;BME280_temperature;BME280_humidity;BME280_pressure;Samples;Min_cycle;Max_cycle;Signal;HPM_P1;HPM_P2
2022/05/23 00:00:18;;;;;;;0.00;0.00;;;10.90;99.90;;;;;;5088077;28;20069;-74
2022/05/23 00:02:45;;;;;;;0.00;0.00;;;11.00;99.90;;;;;;5092197;28;20024;-74
2022/05/23 00:05:11;;;;;;;0.00;0.00;;;10.90;99.90;;;;;;5093956;28;20028;-73
2022/05/23 00:07:42;;;;;;;0.00;0.00;;;10.80;99.90;;;;;;5096175;28;20030;-73
2022/05/23 00:10:10;;;;;;;0.00;0.00;;;10.80;99.90;;;;;;5092422;28;20420;-74
2022/05/23 00:12:36;;;;;;;0.00;0.00;;;10.70;99.90;;;;;;5093766;28;20064;-72
2022/05/23 00:15:04;;;;;;;0.38;0.38;;;10.60;99.90;;;;;;5077191;28;20025;-73
2022/05/23 00:17:30;;;;;;;0.00;0.00;;;10.60;99.90;;;;;;5078232;28;20029;-73
2022/05/23 00:19:56;;;;;;;0.00;0.00;;;10.70;99.90;;;;;;5084963;28;20470;-74
2022/05/23 00:22:23;;;;;;;0.00;0.00;;;10.90;99.90;;;;;;5090669;28;20028;-73
2022/05/23 00:24:49;;;;;;;0.10;0.10;;;10.90;99.90;;;;;;5076973;28;20074;-74
2022/05/23 00:27:19;;;;;;;2.88;2.15;;;10.90;99.90;;;;;;5091847;28;20020;-74
2022/05/23 00:29:45;;;;;;;0.08;0.08;;;10.80;99.90;;;;;;5078915;28;20497;-73
2022/05/23 00:37:39;;;;;;;0.00;0.00;;;11.00;99.90;;;;;;5078148;28;20421;-73
2022/05/23 00:40:07;;;;;;;0.00;0.00;;;11.10;99.90;;;;;;5082010;28;20024;-73
2022/05/23 00:45:19;;;;;;;0.10;0.10;;;11.10;99.90;;;;;;5086384;28;20078;-74
2022/05/23 00:47:46;;;;;;;0.00;0.00;;;11.20;99.90;;;;;;5079068;28;20047;-73
2022/05/23 00:50:17;;;;;;;2.05;0.95;;;11.30;99.90;;;;;;5077528;28;20434;-74
2022/05/23 00:52:54;;;;;;;0.15;0.15;;;11.30;99.90;;;;;;5075067;28;20039;-73
2022/05/23 00:55:48;;;;;;;0.00;0.00;;;11.20;99.90;;;;;;5082667;28;20529;-74
2022/05/23 00:58:42;;;;;;;0.45;0.45;;;11.20;99.90;;;;;;5080612;28;20394;-74
2022/05/23 01:01:12;;;;;;;0.70;0.63;;;11.50;99.90;;;;;;5079213;28;20032;-73
2022/05/23 01:03:38;;;;;;;4.30;4.07;;;11.30;99.90;;;;;;5086731;28;20050;-73
2022/05/23 01:06:06;;;;;;;5.03;4.70;;;11.40;99.90;;;;;;5083645;28;20499;-74
2022/05/23 01:08:35;;;;;;;0.00;0.00;;;11.50;99.90;;;;;;5095410;28;20024;-73
2022/05/23 01:11:02;;;;;;;0.00;0.00;;;11.60;99.90;;;;;;5083515;28;20024;-74
2022/05/23 01:13:28;;;;;;;0.00;0.00;;;11.60;99.90;;;;;;5085526;28;20024;-74
2022/05/23 01:15:54;;;;;;;0.00;0.00;;;11.70;99.90;;;;;;5090772;28;20103;-73
2022/05/23 01:18:20;;;;;;;0.05;0.03;;;11.80;99.90;;;;;;5079325;28;20020;-74
2022/05/23 01:20:51;;;;;;;0.00;0.00;;;11.90;99.90;;;;;;5076951;28;20017;-73
2022/05/23 01:23:35;;;;;;;0.00;0.00;;;11.90;99.90;;;;;;5079307;28;20048;-73
2022/05/23 01:26:03;;;;;;;1.27;1.23;;;11.90;99.90;;;;;;5078101;28;20505;-73
2022/05/23 01:28:34;;;;;;;1.17;0.93;;;12.00;99.90;;;;;;5083503;28;20134;-73
2022/05/23 01:31:01;;;;;;;0.00;0.00;;;12.10;99.90;;;;;;5092648;28;20029;-73
2022/05/23 01:33:27;;;;;;;0.15;0.15;;;11.80;99.90;;;;;;5092351;28;20024;-73
2022/05/23 01:35:53;;;;;;;0.00;0.00;;;11.80;99.90;;;;;;5094845;28;20098;-73
2022/05/23 01:38:19;;;;;;;0.10;0.10;;;12.00;99.90;;;;;;5096383;28;20050;-74
2022/05/23 01:40:45;;;;;;;0.00;0.00;;;12.00;99.90;;;;;;5079841;28;20437;-73
2022/05/23 01:43:11;;;;;;;0.63;0.63;;;12.10;99.90;;;;;;5091122;28;20306;-74
2022/05/23 01:45:38;;;;;;;0.00;0.00;;;12.10;99.90;;;;;;5091421;28;20386;-74
2022/05/23 01:48:07;;;;;;;13.52;3.72;;;11.90;99.90;;;;;;5082470;28;20021;-73
2022/05/23 01:50:33;;;;;;;0.00;0.00;;;11.90;99.90;;;;;;5085694;28;20055;-73
2022/05/23 01:52:59;;;;;;;0.73;0.73;;;12.00;99.90;;;;;;5077023;28;20041;-74
2022/05/23 01:55:26;;;;;;;0.55;0.55;;;12.10;99.90;;;;;;5087367;28;20028;-73
2022/05/23 01:57:52;;;;;;;0.22;0.22;;;12.20;99.90;;;;;;5084512;28;20036;-73
2022/05/23 02:03:04;;;;;;;2.83;2.65;;;12.40;99.90;;;;;;5078986;28;20059;-73
2022/05/23 02:05:30;;;;;;;0.32;0.30;;;12.40;99.90;;;;;;5081129;28;20474;-73
2022/05/23 02:07:57;;;;;;;0.00;0.00;;;12.40;99.90;;;;;;5078629;28;20383;-73
2022/05/23 02:10:23;;;;;;;0.20;0.20;;;12.50;99.90;;;;;;5090613;28;20024;-74
2022/05/23 02:12:49;;;;;;;4.40;4.22;;;12.60;99.90;;;;;;5083147;28;20039;-73
2022/05/23 02:15:17;;;;;;;0.00;0.00;;;12.50;99.90;;;;;;5078060;28;20052;-73
2022/05/23 02:17:43;;;;;;;0.00;0.00;;;12.60;99.90;;;;;;5089179;28;20028;-73
2022/05/23 02:20:10;;;;;;;0.22;0.22;;;12.80;99.90;;;;;;5081185;28;20024;-73
2022/05/23 02:22:37;;;;;;;0.00;0.00;;;13.00;99.90;;;;;;5079251;28;20115;-73
2022/05/23 02:25:04;;;;;;;0.00;0.00;;;12.70;99.90;;;;;;5077815;28;20020;-73
2022/05/23 02:27:30;;;;;;;0.00;0.00;;;13.10;99.90;;;;;;5086871;28;20080;-73
2022/05/23 02:29:57;;;;;;;0.10;0.10;;;13.30;99.90;;;;;;5091017;28;20530;-73
2022/05/23 02:32:24;;;;;;;0.00;0.00;;;13.60;99.90;;;;;;5083931;28;20039;-74
2022/05/23 02:34:50;;;;;;;0.70;0.70;;;13.70;99.90;;;;;;5076673;28;20027;-73
2022/05/23 02:37:16;;;;;;;3.28;2.33;;;13.80;99.90;;;;;;5073420;28;20031;-73
2022/05/23 02:39:42;;;;;;;0.73;0.55;;;13.80;99.90;;;;;;5078294;28;20445;-73
2022/05/23 02:42:09;;;;;;;9.93;9.20;;;13.80;99.90;;;;;;5076220;28;20033;-74
2022/05/23 02:44:36;;;;;;;0.90;0.90;;;13.50;99.90;;;;;;5076716;28;20029;-74
2022/05/23 02:47:03;;;;;;;0.00;0.00;;;13.50;99.90;;;;;;5073622;28;20448;-74
2022/05/23 02:49:29;;;;;;;2.08;1.52;;;13.80;99.90;;;;;;5080121;28;20048;-75
2022/05/23 02:51:55;;;;;;;1.35;1.25;;;14.00;99.90;;;;;;5079730;28;20032;-75
2022/05/23 02:54:21;;;;;;;0.20;0.20;;;14.10;99.90;;;;;;5077123;28;20015;-74
2022/05/23 02:56:47;;;;;;;0.00;0.00;;;14.00;99.90;;;;;;5071668;28;20398;-74
2022/05/23 02:59:16;;;;;;;0.57;0.57;;;13.70;99.90;;;;;;5076227;28;20266;-74
2022/05/23 03:04:28;;;;;;;0.00;0.00;;;14.20;99.90;;;;;;5047889;28;20040;-73
2022/05/23 03:06:54;;;;;;;2.55;2.35;;;14.20;99.90;;;;;;5075359;28;20102;-74
2022/05/23 03:09:20;;;;;;;0.20;0.20;;;13.80;99.90;;;;;;5077456;28;20032;-74
2022/05/23 03:11:48;;;;;;;1.50;1.40;;;13.90;99.90;;;;;;5074967;28;20108;-74
2022/05/23 03:14:14;;;;;;;0.08;0.08;;;14.00;99.90;;;;;;5080310;28;20535;-74
2022/05/23 03:16:40;;;;;;;0.00;0.00;;;14.10;99.90;;;;;;5077794;28;20031;-74
2022/05/23 03:19:06;;;;;;;2.45;0.45;;;14.30;99.90;;;;;;5077550;28;20065;-74
2022/05/23 03:27:01;;;;;;;4.97;0.90;;;14.50;99.90;;;;;;5072649;28;20133;-73
2022/05/23 03:29:29;;;;;;;4.28;4.05;;;14.60;99.90;;;;;;5072516;28;20024;-74
2022/05/23 03:31:56;;;;;;;0.32;0.32;;;13.70;99.90;;;;;;5076642;28;20067;-73
2022/05/23 03:34:22;;;;;;;0.17;0.17;;;14.00;99.90;;;;;;5076073;28;20039;-76
2022/05/23 03:36:48;;;;;;;0.10;0.10;;;13.90;99.90;;;;;;5075366;28;20056;-73
2022/05/23 03:39:16;;;;;;;0.00;0.00;;;14.30;99.90;;;;;;5079487;28;20509;-74
2022/05/23 03:41:42;;;;;;;0.00;0.00;;;14.10;99.90;;;;;;5071850;28;20413;-73
2022/05/23 03:44:10;;;;;;;0.15;0.15;;;14.30;99.90;;;;;;5074807;28;20037;-75
2022/05/23 03:46:37;;;;;;;0.00;0.00;;;14.10;99.90;;;;;;5072479;28;20028;-75
2022/05/23 03:49:06;;;;;;;0.13;0.13;;;14.00;99.90;;;;;;5074337;28;20032;-75
2022/05/23 03:51:32;;;;;;;0.85;0.47;;;14.10;99.90;;;;;;5071933;28;20017;-73
2022/05/23 03:53:59;;;;;;;0.00;0.00;;;13.90;99.90;;;;;;5071005;28;20033;-74
2022/05/23 03:56:26;;;;;;;4.80;0.47;;;14.20;99.90;;;;;;5070056;28;20044;-75
2022/05/23 03:58:52;;;;;;;0.00;0.00;;;14.60;99.90;;;;;;5070428;28;20031;-73
2022/05/23 04:01:23;;;;;;;0.00;0.00;;;14.60;99.90;;;;;;5074709;28;20383;-76
2022/05/23 04:03:50;;;;;;;0.00;0.00;;;15.10;99.90;;;;;;5071845;28;20024;-74
2022/05/23 04:06:16;;;;;;;1.40;1.30;;;14.70;99.90;;;;;;5073605;28;20033;-75
2022/05/23 04:08:42;;;;;;;0.65;0.55;;;14.20;99.90;;;;;;5081753;28;20036;-75
2022/05/23 04:11:08;;;;;;;0.00;0.00;;;14.30;99.90;;;;;;5074162;28;20060;-75
2022/05/23 04:13:36;;;;;;;0.00;0.00;;;14.80;99.90;;;;;;5077967;28;20083;-75
2022/05/23 04:16:02;;;;;;;0.00;0.00;;;15.20;99.90;;;;;;5077165;28;20074;-75
2022/05/23 04:18:29;;;;;;;1.55;1.45;;;15.60;99.90;;;;;;5072614;28;20024;-75
2022/05/23 04:20:58;;;;;;;0.00;0.00;;;15.50;99.90;;;;;;5075978;28;20534;-75
2022/05/23 04:23:24;;;;;;;0.00;0.00;;;14.90;99.90;;;;;;5072902;28;20032;-74
2022/05/23 04:25:50;;;;;;;0.00;0.00;;;15.20;99.90;;;;;;5069881;28;20025;-75
2022/05/23 04:28:18;;;;;;;2.63;2.17;;;15.50;99.90;;;;;;5074408;28;20020;-74
2022/05/23 04:30:45;;;;;;;3.03;1.35;;;15.50;99.90;;;;;;5068788;28;20029;-75
2022/05/23 04:35:58;;;;;;;0.00;0.00;;;16.20;99.90;;;;;;5075193;28;20090;-76
2022/05/23 04:38:24;;;;;;;0.52;0.32;;;15.90;99.90;;;;;;5077733;28;20525;-75
2022/05/23 04:40:50;;;;;;;0.00;0.00;;;16.20;99.90;;;;;;5081054;28;20115;-72
2022/05/23 04:43:17;;;;;;;0.00;0.00;;;16.50;99.90;;;;;;5078629;28;20044;-73
2022/05/23 04:45:43;;;;;;;0.63;0.40;;;16.20;99.90;;;;;;5077762;28;20028;-75
2022/05/23 04:50:54;;;;;;;2.25;1.17;;;16.10;99.90;;;;;;5075999;28;20566;-75
2022/05/23 04:53:20;;;;;;;0.10;0.10;;;14.90;99.90;;;;;;5079752;28;20032;-74
2022/05/23 04:55:46;;;;;;;1.27;1.17;;;15.00;99.90;;;;;;5075875;28;20130;-74
2022/05/23 04:58:13;;;;;;;0.38;0.38;;;15.50;99.90;;;;;;5078167;28;20032;-75
2022/05/23 05:00:42;;;;;;;0.00;0.00;;;16.10;99.90;;;;;;5082561;28;20020;-74
2022/05/23 05:03:09;;;;;;;0.52;0.52;;;16.50;99.90;;;;;;5078163;28;20394;-74
2022/05/23 05:05:35;;;;;;;1.73;0.50;;;16.10;99.90;;;;;;5076548;28;20035;-75
2022/05/23 05:08:02;;;;;;;0.52;0.52;;;15.70;99.90;;;;;;5074375;28;20043;-74
2022/05/23 05:10:29;;;;;;;1.45;0.65;;;15.00;99.90;;;;;;5076352;28;20028;-74
2022/05/23 05:12:56;;;;;;;0.00;0.00;;;15.20;99.90;;;;;;5074186;28;20039;-74
2022/05/23 05:15:24;;;;;;;0.98;0.75;;;15.20;99.90;;;;;;5075573;28;20021;-74
2022/05/23 05:17:50;;;;;;;4.47;0.60;;;15.00;99.90;;;;;;5076184;28;20028;-74
2022/05/23 05:20:20;;;;;;;0.00;0.00;;;15.30;99.90;;;;;;5072730;28;20459;-73
2022/05/23 05:22:47;;;;;;;0.95;0.43;;;15.70;99.90;;;;;;5080401;28;20029;-73
2022/05/23 05:25:14;;;;;;;0.00;0.00;;;16.30;99.90;;;;;;5087702;28;20058;-74
2022/05/23 05:27:40;;;;;;;0.90;0.77;;;16.70;99.90;;;;;;5075038;28;20536;-73
2022/05/23 05:30:10;;;;;;;0.20;0.20;;;16.60;99.90;;;;;;5076217;28;20490;-74
2022/05/23 05:32:39;;;;;;;0.00;0.00;;;16.20;99.90;;;;;;5077381;28;20032;-75
2022/05/23 05:35:33;;;;;;;5.63;4.65;;;15.80;99.90;;;;;;5082482;28;20066;-74
2022/05/23 05:38:03;;;;;;;0.00;0.00;;;16.60;99.90;;;;;;5079440;28;20036;-74
2022/05/23 05:40:33;;;;;;;0.10;0.10;;;16.80;99.90;;;;;;5072723;28;20029;-75
2022/05/23 05:43:06;;;;;;;0.03;0.03;;;16.30;99.90;;;;;;5062488;28;20142;-74
2022/05/23 05:45:38;;;;;;;0.03;0.03;;;15.70;99.90;;;;;;5073646;28;20024;-74
2022/05/23 05:48:05;;;;;;;1.65;1.55;;;15.60;99.90;;;;;;5075856;28;20027;-75
2022/05/23 05:50:35;;;;;;;10.52;6.32;;;16.40;99.90;;;;;;5076268;28;20040;-74
2022/05/23 05:53:07;;;;;;;0.75;0.75;;;16.30;99.90;;;;;;5075471;28;20074;-75
2022/05/23 05:55:34;;;;;;;3.40;2.97;;;16.50;99.90;;;;;;5086193;28;20519;-76
2022/05/23 05:58:00;;;;;;;0.00;0.00;;;17.10;99.90;;;;;;5076859;28;20031;-74
2022/05/23 06:00:27;;;;;;;0.80;0.80;;;17.80;99.90;;;;;;5075211;28;20035;-74
2022/05/23 06:02:53;;;;;;;1.33;0.65;;;18.10;99.90;;;;;;5076452;28;20023;-74
2022/05/23 06:05:19;;;;;;;1.55;0.65;;;18.20;99.90;;;;;;5082936;28;20024;-73
2022/05/23 06:13:29;;;;;;;0.00;0.00;;;15.50;99.90;;;;;;5051734;28;20202;-73
2022/05/23 06:15:55;;;;;;;2.38;0.95;;;15.70;99.90;;;;;;5081531;28;20055;-73
2022/05/23 06:18:21;;;;;;;1.63;1.50;;;15.80;99.90;;;;;;5084324;28;20482;-75
2022/05/23 06:20:52;;;;;;;0.82;0.60;;;15.50;99.90;;;;;;5094847;28;20024;-73
2022/05/23 06:23:18;;;;;;;0.70;0.70;;;16.00;99.90;;;;;;5080140;28;20031;-74
2022/05/23 06:25:46;;;;;;;1.10;1.08;;;16.30;99.90;;;;;;5075470;28;20516;-75
2022/05/23 06:28:12;;;;;;;0.52;0.52;;;16.90;99.90;;;;;;5084022;28;20027;-74
2022/05/23 06:30:38;;;;;;;1.35;0.75;;;17.00;99.90;;;;;;5072429;28;20020;-74
2022/05/23 06:33:04;;;;;;;3.08;1.50;;;17.00;99.90;;;;;;5076310;28;20293;-75
2022/05/23 06:35:30;;;;;;;0.00;0.00;;;16.60;99.90;;;;;;5073586;28;20028;-76
2022/05/23 06:37:56;;;;;;;0.00;0.00;;;16.30;99.90;;;;;;5076109;28;20028;-75
2022/05/23 06:40:23;;;;;;;0.00;0.00;;;16.00;99.90;;;;;;5077190;28;20420;-75
2022/05/23 06:42:49;;;;;;;0.00;0.00;;;16.40;99.90;;;;;;5079698;28;20409;-75
2022/05/23 06:45:15;;;;;;;0.28;0.28;;;16.80;99.90;;;;;;5076265;28;20032;-77
2022/05/23 06:47:42;;;;;;;0.00;0.00;;;16.00;99.90;;;;;;5073183;28;20066;-75
2022/05/23 06:50:08;;;;;;;0.00;0.00;;;15.90;99.90;;;;;;5075705;28;20023;-75
2022/05/23 06:52:34;;;;;;;0.00;0.00;;;16.50;99.90;;;;;;5070848;28;20036;-75
2022/05/23 06:55:01;;;;;;;0.00;0.00;;;17.00;99.90;;;;;;5069009;28;20028;-74
2022/05/23 06:57:27;;;;;;;0.00;0.00;;;16.60;99.90;;;;;;5064299;28;20017;-75
2022/05/23 06:59:53;;;;;;;0.00;0.00;;;17.00;99.90;;;;;;5065421;28;20037;-74
2022/05/23 07:02:19;;;;;;;0.00;0.00;;;17.50;99.90;;;;;;5071929;28;20046;-74
2022/05/23 07:12:59;;;;;;;0.10;0.10;;;18.10;99.90;;;;;;5074467;28;20039;-76
2022/05/23 07:15:26;;;;;;;0.00;0.00;;;17.70;99.90;;;;;;5074369;28;20469;-75
2022/05/23 07:17:52;;;;;;;0.00;0.00;;;17.50;99.90;;;;;;5074163;28;20035;-74
2022/05/23 07:20:18;;;;;;;0.00;0.00;;;16.60;99.90;;;;;;5073236;28;21056;-75
2022/05/23 07:22:44;;;;;;;2.72;1.38;;;16.10;99.90;;;;;;5077896;28;20035;-75
2022/05/23 07:25:10;;;;;;;0.00;0.00;;;16.80;99.90;;;;;;5077032;28;20137;-74
2022/05/23 07:27:36;;;;;;;0.38;0.38;;;16.50;99.90;;;;;;5073544;28;20059;-75
2022/05/23 07:30:03;;;;;;;0.17;0.17;;;16.50;99.90;;;;;;5083508;28;20038;-76
2022/05/23 07:32:29;;;;;;;0.00;0.00;;;17.30;99.90;;;;;;5074931;28;20427;-75
2022/05/23 07:34:56;;;;;;;0.00;0.00;;;17.80;99.90;;;;;;5085182;28;20032;-73
2022/05/23 07:37:22;;;;;;;2.40;1.48;;;18.30;99.90;;;;;;5075887;28;20394;-75
2022/05/23 07:39:48;;;;;;;0.00;0.00;;;18.20;99.90;;;;;;5074502;28;20112;-75
2022/05/23 07:42:14;;;;;;;3.75;1.90;;;18.20;99.90;;;;;;5070606;28;20086;-76
2022/05/23 07:44:40;;;;;;;0.10;0.10;;;17.80;99.90;;;;;;5071198;28;20028;-75
2022/05/23 07:47:06;;;;;;;0.40;0.20;;;17.90;99.90;;;;;;5072708;28;20138;-75
2022/05/23 07:49:34;;;;;;;0.00;0.00;;;18.10;99.90;;;;;;5076687;28;20035;-75
2022/05/23 07:52:02;;;;;;;0.00;0.00;;;18.00;99.90;;;;;;5072841;28;20031;-73
2022/05/23 08:02:44;;;;;;;0.52;0.25;;;18.00;99.90;;;;;;5069599;28;20478;-75
2022/05/23 08:05:11;;;;;;;0.15;0.15;;;18.00;99.90;;;;;;5073213;28;20108;-75
2022/05/23 08:07:37;;;;;;;0.00;0.00;;;17.80;99.90;;;;;;5079656;28;20054;-74
2022/05/23 08:10:04;;;;;;;0.38;0.38;;;18.30;99.90;;;;;;5076113;28;20410;-75
2022/05/23 08:12:31;;;;;;;0.00;0.00;;;18.70;99.90;;;;;;5085014;28;20024;-75
2022/05/23 08:14:58;;;;;;;0.32;0.20;;;18.90;99.90;;;;;;5083388;28;20032;-75
2022/05/23 08:17:24;;;;;;;7.97;7.43;;;19.00;99.90;;;;;;5080306;28;20020;-75
2022/05/23 08:19:50;;;;;;;0.00;0.00;;;19.10;99.90;;;;;;5083016;28;20111;-76
2022/05/23 08:22:19;;;;;;;0.47;0.30;;;18.80;99.90;;;;;;5076186;28;20043;-75
2022/05/23 08:24:45;;;;;;;0.00;0.00;;;18.90;99.90;;;;;;5067938;28;20134;-75
2022/05/23 08:27:11;;;;;;;0.20;0.20;;;18.90;98.80;;;;;;5071492;28;20735;-75
2022/05/23 08:29:38;;;;;;;0.38;0.10;;;18.20;99.90;;;;;;5074249;28;20043;-76
2022/05/23 08:32:06;;;;;;;9.13;1.75;;;18.10;99.90;;;;;;5070035;28;20035;-74
2022/05/23 08:34:32;;;;;;;0.00;0.00;;;18.80;99.90;;;;;;5074877;28;20020;-75
2022/05/23 08:36:58;;;;;;;0.00;0.00;;;19.10;99.90;;;;;;5078169;28;20024;-74
2022/05/23 08:39:28;;;;;;;0.00;0.00;;;19.10;96.70;;;;;;5078063;28;20036;-74
2022/05/23 08:41:54;;;;;;;2.75;0.88;;;19.30;97.00;;;;;;5074580;28;20052;-74
2022/05/23 08:44:45;;;;;;;0.00;0.00;;;19.10;91.70;;;;;;5074324;28;20020;-74
2022/05/23 08:47:33;;;;;;;0.00;0.00;;;18.60;99.90;;;;;;5077340;28;20056;-75
2022/05/23 08:50:15;;;;;;;0.00;0.00;;;18.70;93.80;;;;;;5081263;28;20032;-75
2022/05/23 08:52:58;;;;;;;0.35;0.25;;;18.90;94.90;;;;;;5076249;28;21164;-74
2022/05/23 08:55:37;;;;;;;0.00;0.00;;;18.70;94.60;;;;;;5081707;28;20044;-74
2022/05/23 08:58:13;;;;;;;0.38;0.38;;;18.40;99.90;;;;;;5072021;28;20381;-74
2022/05/23 09:00:46;;;;;;;0.00;0.00;;;17.70;99.90;;;;;;5072845;28;20016;-76
2022/05/23 09:03:34;;;;;;;0.10;0.10;;;18.20;99.90;;;;;;5070432;28;20415;-74
2022/05/23 09:06:18;;;;;;;0.00;0.00;;;18.60;94.60;;;;;;5074132;28;20097;-76
2022/05/23 09:08:58;;;;;;;0.22;0.22;;;18.70;95.20;;;;;;5079139;28;20039;-77
2022/05/23 09:11:39;;;;;;;0.00;0.00;;;19.20;90.00;;;;;;5067739;28;20081;-75
2022/05/23 09:14:07;;;;;;;0.00;0.00;;;18.70;92.00;;;;;;5079565;28;20032;-73
2022/05/23 09:16:49;;;;;;;0.82;0.50;;;19.20;90.80;;;;;;5085792;28;20062;-74
2022/05/23 09:19:46;;;;;;;0.00;0.00;;;18.80;91.40;;;;;;5081651;28;20036;-74
2022/05/23 09:22:20;;;;;;;0.70;0.40;;;19.20;91.00;;;;;;5081305;28;20056;-75
2022/05/23 09:24:48;;;;;;;0.00;0.00;;;19.30;90.30;;;;;;5081414;28;20043;-75
2022/05/23 09:27:23;;;;;;;0.00;0.00;;;18.90;87.10;;;;;;5083997;28;20081;-74
2022/05/23 09:29:52;;;;;;;0.80;0.80;;;18.60;91.00;;;;;;5084136;28;20115;-75
2022/05/23 09:32:24;;;;;;;0.00;0.00;;;18.20;93.50;;;;;;5085021;28;20035;-74
2022/05/23 09:35:22;;;;;;;0.40;0.20;;;18.20;97.90;;;;;;5075680;28;20125;-75
2022/05/23 09:38:25;;;;;;;0.00;0.00;;;18.30;99.90;;;;;;5073545;28;20485;-76
2022/05/23 09:40:53;;;;;;;0.00;0.00;;;18.60;99.90;;;;;;5002545;28;20026;-74
2022/05/23 09:49:21;;;;;;;0.45;0.25;;;17.50;99.90;;;;;;5081288;28;20038;-74
2022/05/23 09:52:11;;;;;;;0.32;0.32;;;17.70;99.90;;;;;;5085060;28;20032;-75
2022/05/23 09:54:51;;;;;;;0.00;0.00;;;18.00;99.90;;;;;;5085123;28;20023;-76
2022/05/23 09:57:34;;;;;;;0.08;0.08;;;18.20;99.90;;;;;;5077313;28;20468;-76
2022/05/23 10:00:01;;;;;;;0.00;0.00;;;17.80;99.90;;;;;;5092399;28;20022;-74
2022/05/23 10:02:34;;;;;;;0.00;0.00;;;17.30;99.90;;;;;;5078334;28;20398;-74
2022/05/23 10:05:02;;;;;;;0.00;0.00;;;17.50;99.90;;;;;;5091006;28;20067;-75
2022/05/23 10:07:37;;;;;;;0.00;0.00;;;17.70;99.90;;;;;;5089271;28;20469;-75
2022/05/23 10:10:18;;;;;;;0.00;0.00;;;17.40;99.90;;;;;;5080777;28;20114;-75
2022/05/23 10:12:44;;;;;;;0.00;0.00;;;17.70;99.90;;;;;;5072027;28;20032;-74
2022/05/23 10:15:19;;;;;;;0.00;0.00;;;17.60;99.90;;;;;;5084123;28;20032;-74
2022/05/23 10:18:03;;;;;;;0.00;0.00;;;17.60;99.90;;;;;;5077308;28;20102;-75
2022/05/23 10:20:37;;;;;;;0.22;0.22;;;17.80;99.90;;;;;;5079720;28;20028;-74
2022/05/23 10:23:21;;;;;;;0.00;0.00;;;17.60;99.90;;;;;;5080592;28;20474;-75
2022/05/23 10:25:55;;;;;;;0.00;0.00;;;18.00;99.90;;;;;;5077747;28;20038;-74
2022/05/23 10:28:34;;;;;;;0.00;0.00;;;17.20;99.90;;;;;;5071336;28;20032;-75
2022/05/23 10:31:14;;;;;;;0.00;0.00;;;17.30;99.90;;;;;;5077416;28;20032;-75
2022/05/23 10:33:44;;;;;;;0.00;0.00;;;17.70;99.90;;;;;;5088370;28;20094;-74
2022/05/23 10:36:21;;;;;;;0.00;0.00;;;17.80;99.90;;;;;;5073926;28;21154;-74
2022/05/23 10:42:08;;;;;;;0.00;0.00;;;17.70;99.90;;;;;;5076858;28;20577;-75
2022/05/23 10:44:44;;;;;;;0.00;0.00;;;17.80;99.90;;;;;;5074908;28;20605;-75
2022/05/23 10:47:41;;;;;;;0.00;0.00;;;17.90;99.90;;;;;;5079476;28;20069;-75
2022/05/23 10:50:22;;;;;;;0.00;0.00;;;18.30;99.90;;;;;;5077486;28;20059;-75
2022/05/23 10:53:00;;;;;;;0.00;0.00;;;18.00;99.90;;;;;;5081153;28;20032;-74
2022/05/23 10:55:39;;;;;;;0.00;0.00;;;18.50;99.90;;;;;;5077917;28;20036;-75
2022/05/23 10:58:30;;;;;;;0.00;0.00;;;18.40;99.90;;;;;;5079868;28;20119;-74
2022/05/23 11:01:21;;;;;;;0.17;0.17;;;17.90;99.90;;;;;;5080931;28;20028;-75
2022/05/23 11:04:10;;;;;;;0.00;0.00;;;17.70;99.90;;;;;;5083274;28;20162;-73
2022/05/23 11:06:45;;;;;;;0.10;0.10;;;17.90;99.90;;;;;;5085280;28;20040;-75
2022/05/23 11:09:36;;;;;;;0.15;0.15;;;17.50;99.90;;;;;;5089618;28;20036;-74
2022/05/23 11:12:41;;;;;;;0.00;0.00;;;17.70;99.90;;;;;;5085113;28;20031;-75
2022/05/23 11:15:27;;;;;;;4.47;1.23;;;18.00;99.90;;;;;;5073158;28;20089;-74
2022/05/23 11:17:56;;;;;;;0.00;0.00;;;17.80;99.90;;;;;;5084202;28;20024;-75
2022/05/23 11:20:28;;;;;;;0.00;0.00;;;17.20;99.90;;;;;;5085756;28;20024;-75
2022/05/23 11:23:27;;;;;;;0.00;0.00;;;17.60;99.90;;;;;;5085645;28;20118;-74
2022/05/23 11:26:28;;;;;;;0.00;0.00;;;17.80;99.90;;;;;;5080649;28;20028;-75
2022/05/23 11:35:12;;;;;;;0.40;0.40;;;18.00;99.90;;;;;;5087860;28;20038;-75
2022/05/23 11:37:45;;;;;;;0.00;0.00;;;18.10;99.90;;;;;;5076592;28;20040;-74
2022/05/23 11:40:37;;;;;;;0.20;0.20;;;18.10;99.90;;;;;;5074687;28;20107;-74
2022/05/23 11:43:06;;;;;;;0.00;0.00;;;17.50;99.90;;;;;;5078385;28;20051;-74
2022/05/23 11:46:04;;;;;;;0.00;0.00;;;17.60;99.90;;;;;;5071496;28;20521;-75
2022/05/23 11:48:39;;;;;;;0.00;0.00;;;17.80;99.90;;;;;;5074618;28;20034;-75
2022/05/23 11:51:09;;;;;;;0.00;0.00;;;18.00;99.90;;;;;;5076017;28;20028;-75
2022/05/23 11:53:37;;;;;;;0.00;0.00;;;17.80;99.90;;;;;;5070923;28;20069;-74
2022/05/23 11:56:07;;;;;;;0.00;0.00;;;17.90;99.90;;;;;;5077675;28;20116;-75
2022/05/23 11:58:43;;;;;;;0.00;0.00;;;17.80;99.90;;;;;;5075933;28;20120;-75
2022/05/23 12:01:10;;;;;;;0.00;0.00;;;18.00;99.90;;;;;;5072985;28;20048;-74
2022/05/23 12:03:51;;;;;;;0.00;0.00;;;17.90;96.00;;;;;;5076437;28;20453;-75
2022/05/23 12:06:25;;;;;;;0.00;0.00;;;18.00;96.70;;;;;;5074064;28;20758;-76
2022/05/23 12:09:07;;;;;;;0.00;0.00;;;18.10;96.50;;;;;;5081032;28;20579;-75
2022/05/23 12:11:35;;;;;;;0.00;0.00;;;18.30;97.20;;;;;;5077606;28;20020;-75
2022/05/23 12:14:28;;;;;;;0.00;0.00;;;18.30;95.70;;;;;;5080292;28;20050;-76
2022/05/23 12:16:58;;;;;;;0.00;0.00;;;18.30;95.40;;;;;;5076347;28;20049;-75
2022/05/23 12:19:38;;;;;;;0.00;0.00;;;18.40;95.40;;;;;;5075510;28;21095;-77
2022/05/23 12:22:23;;;;;;;0.00;0.00;;;18.10;96.60;;;;;;5091666;28;20136;-74
2022/05/23 12:25:07;;;;;;;0.10;0.10;;;18.30;97.00;;;;;;5084478;28;20406;-75
2022/05/23 12:27:38;;;;;;;0.00;0.00;;;18.10;98.00;;;;;;5085253;28;20062;-74
2022/05/23 12:30:25;;;;;;;0.00;0.00;;;18.10;98.40;;;;;;5092996;28;20043;-74
2022/05/23 12:33:00;;;;;;;0.00;0.00;;;18.30;97.70;;;;;;5088870;28;20110;-75
2022/05/23 12:35:54;;;;;;;0.03;0.03;;;18.20;97.60;;;;;;5088668;28;20025;-74
2022/05/23 12:38:44;;;;;;;0.00;0.00;;;18.00;98.00;;;;;;5074134;28;20154;-74
2022/05/23 12:41:42;;;;;;;0.00;0.00;;;18.00;98.70;;;;;;5076501;28;20028;-74
2022/05/23 12:44:33;;;;;;;0.00;0.00;;;17.80;99.90;;;;;;5078049;28;20047;-75
2022/05/23 12:46:59;;;;;;;0.00;0.00;;;17.90;99.90;;;;;;5074212;28;20095;-74
2022/05/23 12:49:31;;;;;;;0.00;0.00;;;18.00;97.90;;;;;;5076850;28;20060;-75
2022/05/23 12:52:18;;;;;;;0.00;0.00;;;18.10;98.30;;;;;;5080697;28;20570;-73
2022/05/23 12:55:11;;;;;;;0.00;0.00;;;18.20;96.40;;;;;;5078957;28;20123;-74
2022/05/23 12:57:56;;;;;;;0.00;0.00;;;18.10;96.30;;;;;;5077312;28;20088;-75
2022/05/23 13:00:38;;;;;;;0.17;0.17;;;17.80;98.20;;;;;;5082842;28;20020;-74
2022/05/23 13:03:30;;;;;;;0.00;0.00;;;17.90;98.90;;;;;;5085535;28;20091;-74
2022/05/23 13:06:04;;;;;;;0.32;0.32;;;17.90;98.90;;;;;;5077057;28;20024;-76
2022/05/23 13:08:42;;;;;;;0.00;0.00;;;17.70;99.90;;;;;;5079364;28;20111;-72
2022/05/23 13:11:34;;;;;;;0.00;0.00;;;17.80;99.90;;;;;;5080932;28;20056;-75
2022/05/23 13:14:00;;;;;;;0.10;0.10;;;17.80;99.90;;;;;;5091427;28;20020;-74
2022/05/23 13:16:29;;;;;;;0.00;0.00;;;17.70;99.90;;;;;;5091761;28;20466;-73
2022/05/23 13:22:08;;;;;;;0.00;0.00;;;16.90;99.90;;;;;;5089104;28;20102;-74
2022/05/23 13:24:55;;;;;;;0.00;0.00;;;17.20;99.90;;;;;;5079304;28;20036;-74
2022/05/23 13:27:34;;;;;;;0.00;0.00;;;17.30;99.90;;;;;;5085674;28;20097;-73
2022/05/23 13:30:06;;;;;;;0.00;0.00;;;17.50;99.90;;;;;;5074491;28;20029;-74
2022/05/23 13:32:33;;;;;;;0.00;0.00;;;17.40;99.90;;;;;;5080335;28;20039;-75
2022/05/23 13:35:19;;;;;;;0.00;0.00;;;17.40;99.90;;;;;;5075105;28;20028;-73
2022/05/23 13:37:46;;;;;;;0.00;0.00;;;17.30;99.90;;;;;;5083289;28;20031;-74
2022/05/23 13:40:15;;;;;;;1.65;1.55;;;17.30;99.90;;;;;;5083629;28;20099;-75
2022/05/23 13:42:42;;;;;;;0.00;0.00;;;17.30;99.90;;;;;;5081432;28;20044;-74
2022/05/23 13:45:24;;;;;;;0.00;0.00;;;17.10;99.90;;;;;;5075911;28;20101;-75
2022/05/23 13:47:58;;;;;;;0.03;0.03;;;17.10;99.90;;;;;;5075237;28;20374;-74
2022/05/23 13:50:36;;;;;;;0.00;0.00;;;16.90;99.90;;;;;;5077965;28;20378;-74
2022/05/23 13:53:09;;;;;;;0.00;0.00;;;16.90;99.90;;;;;;5077593;28;20033;-75
2022/05/23 13:55:46;;;;;;;0.00;0.00;;;17.00;99.90;;;;;;5092212;28;20016;-74
2022/05/23 13:58:23;;;;;;;0.00;0.00;;;17.10;99.90;;;;;;5079931;28;20493;-73
2022/05/23 14:01:01;;;;;;;0.00;0.00;;;16.60;99.90;;;;;;5081458;28;20028;-73
2022/05/23 14:03:42;;;;;;;0.00;0.00;;;16.70;99.90;;;;;;5078112;28;20378;-74
2022/05/23 14:06:15;;;;;;;0.00;0.00;;;16.60;99.90;;;;;;5080241;28;20025;-73
2022/05/23 14:08:54;;;;;;;0.00;0.00;;;16.70;99.90;;;;;;5077857;28;20029;-74
2022/05/23 14:11:36;;;;;;;0.00;0.00;;;16.70;99.90;;;;;;5086940;28;20106;-74
2022/05/23 14:14:19;;;;;;;0.00;0.00;;;16.70;99.90;;;;;;5085049;28;20482;-74
2022/05/23 14:17:15;;;;;;;0.00;0.00;;;16.60;99.90;;;;;;5087069;28;20505;-74